createdAt,value
2018-09-05T00:01:33.884Z,12.57
2018-09-05T00:06:37.710Z,13.40
2018-09-05T00:11:41.303Z,12.43
2018-09-05T00:16:45.373Z,12.80
2018-09-05T00:21:49.229Z,12.33
2018-09-05T00:26:52.861Z,13.13
2018-09-05T00:31:56.644Z,12.57
2018-09-05T00:37:00.402Z,12.07
2018-09-05T00:42:04.159Z,12.63
2018-09-05T00:47:08.230Z,13.27
2018-09-05T00:52:12.421Z,13.13
2018-09-05T00:57:17.221Z,14.17
2018-09-05T01:02:20.986Z,12.87
2018-09-05T01:07:29.355Z,11.57
2018-09-05T01:12:33.087Z,12.63
2018-09-05T01:17:36.668Z,13.10
2018-09-05T01:22:40.387Z,13.90
2018-09-05T01:27:44.081Z,13.40
2018-09-05T01:32:47.799Z,13.67
2018-09-05T01:37:51.576Z,13.10
2018-09-05T01:42:55.224Z,12.30
2018-09-05T01:47:58.832Z,12.90
2018-09-05T01:53:02.523Z,13.50
2018-09-05T01:58:07.670Z,12.30
2018-09-05T02:03:11.664Z,12.90
2018-09-05T02:08:17.233Z,12.27
2018-09-05T02:13:22.704Z,12.40
2018-09-05T02:18:26.629Z,12.77
2018-09-05T02:23:30.261Z,14.63
2018-09-05T02:28:34.169Z,12.83
2018-09-05T02:33:40.653Z,15.27
2018-09-05T02:38:44.762Z,14.37
2018-09-05T02:43:53.627Z,15.87
2018-09-05T02:48:58.845Z,16.97
2018-09-05T02:54:02.459Z,16.43
2018-09-05T02:59:06.219Z,15.30
2018-09-05T03:04:10.392Z,16.67
2018-09-05T03:09:14.063Z,15.93
2018-09-05T03:14:18.387Z,14.07
2018-09-05T03:19:22.304Z,14.30
2018-09-05T03:24:26.122Z,14.50
2018-09-05T03:29:29.789Z,16.40
2018-09-05T03:34:33.684Z,14.80
2018-09-05T03:39:37.432Z,14.03
2018-09-05T03:44:41.482Z,14.73
2018-09-05T03:49:47.316Z,15.53
2018-09-05T03:54:51.950Z,13.07
2018-09-05T03:59:55.719Z,13.10
2018-09-05T04:05:01.979Z,14.00
2018-09-05T04:10:05.834Z,14.53
2018-09-05T04:15:10.729Z,15.53
2018-09-05T04:20:31.068Z,15.07
2018-09-05T04:25:34.833Z,13.80
2018-09-05T04:30:39.041Z,14.20
2018-09-05T04:35:44.596Z,16.00
2018-09-05T04:40:48.302Z,16.63
2018-09-05T04:45:52.005Z,15.97
2018-09-05T04:50:55.661Z,15.87
2018-09-05T04:55:59.592Z,14.80
2018-09-05T05:01:03.580Z,16.10
2018-09-05T05:06:08.028Z,17.00
2018-09-05T05:11:11.663Z,18.33
2018-09-05T05:16:15.482Z,20.53
2018-09-05T05:21:19.254Z,10.60
2018-09-05T05:26:22.852Z,14.43
2018-09-05T05:31:26.870Z,16.03
2018-09-05T05:36:32.073Z,17.40
2018-09-05T05:41:36.408Z,17.43
2018-09-05T05:46:40.198Z,17.90
2018-09-05T05:51:43.867Z,20.13
2018-09-05T05:56:47.906Z,20.30
2018-09-05T06:02:06.687Z,18.50
2018-09-05T06:07:10.340Z,20.40
2018-09-05T06:12:15.756Z,23.00
2018-09-05T06:17:20.465Z,30.90
2018-09-05T06:22:24.080Z,24.40
2018-09-05T06:27:28.023Z,28.00
2018-09-05T06:32:34.972Z,25.73
2018-09-05T06:37:38.791Z,25.27
2018-09-05T06:42:42.873Z,24.03
2018-09-05T06:47:47.375Z,24.53
2018-09-05T06:52:51.093Z,26.03
2018-09-05T06:57:55.498Z,25.60
2018-09-05T07:02:59.843Z,26.30
2018-09-05T07:08:03.414Z,26.10
2018-09-05T07:13:07.063Z,27.80
2018-09-05T07:18:10.752Z,26.70
2018-09-05T07:23:14.412Z,26.00
2018-09-05T07:28:18.131Z,26.17
2018-09-05T07:33:21.829Z,26.77
2018-09-05T07:38:25.740Z,26.97
2018-09-05T07:43:29.518Z,25.70
2018-09-05T07:48:33.183Z,25.77
2018-09-05T07:53:36.836Z,25.47
2018-09-05T07:58:41.231Z,25.87
2018-09-05T08:03:44.872Z,26.87
2018-09-05T08:08:48.485Z,24.87
2018-09-05T08:13:52.539Z,24.07
2018-09-05T08:18:56.771Z,23.27
2018-09-05T08:24:00.421Z,23.73
2018-09-05T08:29:04.127Z,19.80
2018-09-05T08:34:07.806Z,20.30
2018-09-05T08:39:13.627Z,20.70
2018-09-05T08:44:18.191Z,19.50
2018-09-05T08:49:21.805Z,17.90
2018-09-05T08:54:25.688Z,21.23
2018-09-05T08:59:29.412Z,20.70
2018-09-05T09:04:33.580Z,21.40
2018-09-05T09:09:37.131Z,21.50
2018-09-05T09:14:41.296Z,23.80
2018-09-05T09:19:45.068Z,21.80
2018-09-05T09:24:50.186Z,19.83
2018-09-05T09:29:54.095Z,18.03
2018-09-05T09:34:58.664Z,20.37
2018-09-05T09:40:02.300Z,20.50
2018-09-05T09:45:06.446Z,21.20
2018-09-05T09:50:10.095Z,21.23
2018-09-05T09:55:13.854Z,20.53
2018-09-05T10:00:22.701Z,18.90
2018-09-05T10:05:32.029Z,20.93
2018-09-05T10:10:40.945Z,20.13
2018-09-05T10:15:49.947Z,19.97
2018-09-05T10:20:53.910Z,19.70
2018-09-05T10:25:57.569Z,19.70
2018-09-05T10:31:01.436Z,18.77
2018-09-05T10:36:05.347Z,16.37
2018-09-05T10:41:10.216Z,17.90
2018-09-05T10:46:14.196Z,15.20
2018-09-05T10:51:23.500Z,16.20
2018-09-05T10:56:27.217Z,17.30
2018-09-05T11:01:31.156Z,15.37
2018-09-05T11:06:35.379Z,14.47
2018-09-05T11:11:39.434Z,12.83
2018-09-05T11:16:43.131Z,14.50
2018-09-05T11:21:46.752Z,12.47
2018-09-05T11:26:50.531Z,12.93
2018-09-05T11:31:54.195Z,12.80
2018-09-05T11:36:58.201Z,11.10
2018-09-05T11:42:01.800Z,10.50
2018-09-05T11:47:05.567Z,10.80
2018-09-05T11:52:09.217Z,9.23
2018-09-05T11:57:12.936Z,8.87
2018-09-05T12:02:17.522Z,5.47
2018-09-05T12:07:21.227Z,5.17
2018-09-05T12:12:25.460Z,7.60
2018-09-05T12:17:29.351Z,8.57
2018-09-05T12:22:33.536Z,5.00
2018-09-05T12:27:37.268Z,6.90
2018-09-05T12:32:41.273Z,7.10
2018-09-05T12:37:45.677Z,5.47
2018-09-05T12:42:49.515Z,4.37
2018-09-05T12:47:53.252Z,4.30
2018-09-05T12:52:58.108Z,4.07
2018-09-05T12:58:02.033Z,3.97
2018-09-05T13:03:06.847Z,4.87
2018-09-05T13:08:10.884Z,4.93
2018-09-05T13:13:14.603Z,4.60
2018-09-05T13:18:18.335Z,6.00
2018-09-05T13:23:22.214Z,6.60
2018-09-05T13:28:26.278Z,5.47
2018-09-05T13:33:29.998Z,5.17
2018-09-05T13:38:36.120Z,5.47
2018-09-05T13:43:40.014Z,5.77
2018-09-05T13:48:44.600Z,6.20
2018-09-05T13:53:48.607Z,5.33
2018-09-05T13:58:52.460Z,5.50
2018-09-05T14:03:56.354Z,6.20
2018-09-05T14:09:00.263Z,6.20
2018-09-05T14:14:04.021Z,6.03
2018-09-05T14:19:07.708Z,6.00
2018-09-05T14:24:14.247Z,5.50
2018-09-05T14:29:18.133Z,5.87
2018-09-05T14:34:22.881Z,5.20
2018-09-05T14:39:26.772Z,4.90
2018-09-05T14:44:31.896Z,5.67
2018-09-05T14:49:35.732Z,5.30
2018-09-05T14:54:39.776Z,11.53
2018-09-05T14:59:44.716Z,5.47
2018-09-05T15:04:48.846Z,5.40
2018-09-05T15:09:52.734Z,4.43
2018-09-05T15:14:57.060Z,4.40
2018-09-05T15:20:02.120Z,5.23
2018-09-05T15:25:06.457Z,4.67
2018-09-05T15:30:10.914Z,4.03
2018-09-05T15:35:14.861Z,4.23
2018-09-05T15:40:19.396Z,3.70
2018-09-05T15:45:23.444Z,3.30
2018-09-05T15:55:40.468Z,3.70
2018-09-05T16:00:44.846Z,3.20
2018-09-05T16:05:48.939Z,3.50
2018-09-05T16:10:56.092Z,3.70
2018-09-05T16:16:00.969Z,4.30
2018-09-05T16:21:05.608Z,4.10
2018-09-05T16:26:09.434Z,4.60
2018-09-05T16:31:13.805Z,4.73
2018-09-05T16:36:17.657Z,4.97
2018-09-05T16:41:22.250Z,4.70
2018-09-05T16:46:26.003Z,5.00
2018-09-05T16:51:30.400Z,4.60
2018-09-05T16:56:34.807Z,4.37
2018-09-05T17:01:38.579Z,4.70
2018-09-05T17:06:42.516Z,4.47
2018-09-05T17:11:46.242Z,4.73
2018-09-05T17:17:23.526Z,4.50
2018-09-05T17:22:28.860Z,4.20
2018-09-05T17:27:34.232Z,4.20
2018-09-05T17:32:38.021Z,5.07
2018-09-05T17:37:41.752Z,4.97
2018-09-05T17:42:45.481Z,5.10
2018-09-05T17:47:49.473Z,4.50
2018-09-05T17:52:53.427Z,4.27
2018-09-05T17:57:57.203Z,4.63
2018-09-05T18:03:01.575Z,5.27
2018-09-05T18:08:06.090Z,7.53
2018-09-05T18:13:09.769Z,7.70
2018-09-05T18:18:13.646Z,11.13
2018-09-05T18:23:17.346Z,5.60
2018-09-05T18:28:21.197Z,5.30
2018-09-05T18:33:25.093Z,5.00
2018-09-05T18:38:29.138Z,5.37
2018-09-05T18:43:33.371Z,5.20
2018-09-05T18:48:38.127Z,5.53
2018-09-05T18:53:42.480Z,5.43
2018-09-05T18:58:46.720Z,5.10
2018-09-05T19:03:50.283Z,4.80
2018-09-05T19:08:54.090Z,4.50
2018-09-05T19:13:57.482Z,5.47
2018-09-05T19:19:00.926Z,5.73
2018-09-05T19:24:04.249Z,4.50
2018-09-05T19:29:07.730Z,5.40
2018-09-05T19:34:11.360Z,4.83
2018-09-05T19:39:17.480Z,4.70
2018-09-05T19:44:21.672Z,5.23
2018-09-05T19:49:25.074Z,6.70
2018-09-05T19:54:31.568Z,5.40
2018-09-05T19:59:37.616Z,6.50
2018-09-05T20:04:41.372Z,5.00
2018-09-05T20:09:44.858Z,6.60
2018-09-05T20:14:48.251Z,9.17
2018-09-05T20:19:51.651Z,10.13
2018-09-05T20:24:56.171Z,9.00
2018-09-05T20:30:01.390Z,7.20
2018-09-05T20:35:08.236Z,7.50
2018-09-05T20:40:13.677Z,5.70
2018-09-05T20:45:19.492Z,7.90
2018-09-05T20:50:27.765Z,6.30
2018-09-05T20:55:35.118Z,6.50
2018-09-05T21:00:38.849Z,6.57
2018-09-05T21:05:42.926Z,6.60
2018-09-05T21:10:46.707Z,6.63
2018-09-05T21:15:50.389Z,7.00
2018-09-05T21:20:58.776Z,6.80
2018-09-05T21:26:02.510Z,6.83
2018-09-05T21:31:06.567Z,7.13
2018-09-05T21:36:11.293Z,6.70
2018-09-05T21:41:15.107Z,7.73
2018-09-05T21:46:18.831Z,9.00
2018-09-05T21:51:22.992Z,8.90
2018-09-05T21:56:26.730Z,7.27
2018-09-05T22:01:30.552Z,7.77
2018-09-05T22:06:34.344Z,8.20
2018-09-05T22:11:37.990Z,7.57
2018-09-05T22:16:41.672Z,7.23
2018-09-05T22:21:45.415Z,7.37
2018-09-05T22:26:49.084Z,7.57
2018-09-05T22:31:53.790Z,8.10
2018-09-05T22:42:13.947Z,8.30
2018-09-05T22:47:29.611Z,10.47
2018-09-05T22:58:10.884Z,8.67
2018-09-05T23:03:44.913Z,8.87
2018-09-05T23:08:48.552Z,8.53
2018-09-05T23:14:03.487Z,8.63
2018-09-05T23:19:43.217Z,8.33
2018-09-05T23:24:47.096Z,9.30
2018-09-05T23:29:50.978Z,8.50
2018-09-05T23:34:54.644Z,8.87
2018-09-05T23:39:58.417Z,8.60
2018-09-05T23:45:02.033Z,8.10
2018-09-05T23:50:05.876Z,8.30
2018-09-05T23:55:09.618Z,8.53
